sensor_id;sensor_type;location;lat;lon;timestamp;temperature;humidity
60848;DHT22;46681;47.696;9.140;2023-04-25T00:01:18;13.30;49.90
60848;DHT22;46681;47.696;9.140;2023-04-25T00:03:44;13.30;50.00
60848;DHT22;46681;47.696;9.140;2023-04-25T00:06:10;13.30;50.00
60848;DHT22;46681;47.696;9.140;2023-04-25T00:08:35;13.30;50.00
60848;DHT22;46681;47.696;9.140;2023-04-25T00:11:04;13.30;50.10
60848;DHT22;46681;47.696;9.140;2023-04-25T00:13:30;13.30;50.10
60848;DHT22;46681;47.696;9.140;2023-04-25T00:15:55;13.20;50.10
60848;DHT22;46681;47.696;9.140;2023-04-25T00:18:21;13.30;50.30
60848;DHT22;46681;47.696;9.140;2023-04-25T00:20:47;13.20;50.30
60848;DHT22;46681;47.696;9.140;2023-04-25T00:23:14;13.20;50.30
60848;DHT22;46681;47.696;9.140;2023-04-25T00:25:39;13.20;50.20
60848;DHT22;46681;47.696;9.140;2023-04-25T00:28:05;13.20;50.30
60848;DHT22;46681;47.696;9.140;2023-04-25T00:30:30;13.20;50.50
60848;DHT22;46681;47.696;9.140;2023-04-25T00:32:56;13.20;50.40
60848;DHT22;46681;47.696;9.140;2023-04-25T00:35:21;13.20;50.60
60848;DHT22;46681;47.696;9.140;2023-04-25T00:37:47;13.10;50.50
60848;DHT22;46681;47.696;9.140;2023-04-25T00:40:14;13.20;50.60
60848;DHT22;46681;47.696;9.140;2023-04-25T00:42:40;13.20;50.70
60848;DHT22;46681;47.696;9.140;2023-04-25T00:45:08;13.10;50.50
60848;DHT22;46681;47.696;9.140;2023-04-25T00:47:40;13.10;50.70
60848;DHT22;46681;47.696;9.140;2023-04-25T00:50:06;13.10;50.70
60848;DHT22;46681;47.696;9.140;2023-04-25T00:52:34;13.10;50.70
60848;DHT22;46681;47.696;9.140;2023-04-25T00:55:01;13.10;50.70
60848;DHT22;46681;47.696;9.140;2023-04-25T00:57:28;13.10;50.70
60848;DHT22;46681;47.696;9.140;2023-04-25T00:59:54;13.10;50.70
60848;DHT22;46681;47.696;9.140;2023-04-25T01:02:20;13.00;50.70
60848;DHT22;46681;47.696;9.140;2023-04-25T01:04:47;13.00;50.70
60848;DHT22;46681;47.696;9.140;2023-04-25T01:07:13;13.00;50.70
60848;DHT22;46681;47.696;9.140;2023-04-25T01:09:39;13.00;50.70
60848;DHT22;46681;47.696;9.140;2023-04-25T01:12:05;13.00;50.80
60848;DHT22;46681;47.696;9.140;2023-04-25T01:14:31;13.00;50.80
60848;DHT22;46681;47.696;9.140;2023-04-25T01:16:56;13.00;50.90
60848;DHT22;46681;47.696;9.140;2023-04-25T01:19:22;13.00;50.90
60848;DHT22;46681;47.696;9.140;2023-04-25T01:21:48;13.00;50.90
60848;DHT22;46681;47.696;9.140;2023-04-25T01:24:14;13.00;50.80
60848;DHT22;46681;47.696;9.140;2023-04-25T01:26:41;12.90;50.80
60848;DHT22;46681;47.696;9.140;2023-04-25T01:29:09;12.90;50.90
60848;DHT22;46681;47.696;9.140;2023-04-25T01:31:35;12.90;50.90
60848;DHT22;46681;47.696;9.140;2023-04-25T01:34:00;12.90;51.00
60848;DHT22;46681;47.696;9.140;2023-04-25T01:36:26;12.90;51.00
60848;DHT22;46681;47.696;9.140;2023-04-25T01:38:52;12.90;51.00
60848;DHT22;46681;47.696;9.140;2023-04-25T01:41:17;12.90;51.10
60848;DHT22;46681;47.696;9.140;2023-04-25T01:43:44;12.90;51.20
60848;DHT22;46681;47.696;9.140;2023-04-25T01:46:11;12.80;51.30
60848;DHT22;46681;47.696;9.140;2023-04-25T01:48:36;12.80;51.30
60848;DHT22;46681;47.696;9.140;2023-04-25T01:51:02;12.80;51.30
60848;DHT22;46681;47.696;9.140;2023-04-25T01:53:28;12.80;51.40
60848;DHT22;46681;47.696;9.140;2023-04-25T01:55:53;12.80;51.40
60848;DHT22;46681;47.696;9.140;2023-04-25T01:58:19;12.80;51.60
60848;DHT22;46681;47.696;9.140;2023-04-25T02:00:44;12.80;51.60
60848;DHT22;46681;47.696;9.140;2023-04-25T02:03:10;12.70;51.50
60848;DHT22;46681;47.696;9.140;2023-04-25T02:08:13;12.70;51.80
60848;DHT22;46681;47.696;9.140;2023-04-25T02:10:42;12.70;51.90
60848;DHT22;46681;47.696;9.140;2023-04-25T02:13:12;12.70;51.90
60848;DHT22;46681;47.696;9.140;2023-04-25T02:15:40;12.70;52.40
60848;DHT22;46681;47.696;9.140;2023-04-25T02:18:14;12.60;52.00
60848;DHT22;46681;47.696;9.140;2023-04-25T02:20:40;12.60;52.10
60848;DHT22;46681;47.696;9.140;2023-04-25T02:23:08;12.60;52.10
60848;DHT22;46681;47.696;9.140;2023-04-25T02:25:43;12.50;52.00
60848;DHT22;46681;47.696;9.140;2023-04-25T02:28:08;12.50;52.10
60848;DHT22;46681;47.696;9.140;2023-04-25T02:30:34;12.50;52.30
60848;DHT22;46681;47.696;9.140;2023-04-25T02:33:02;12.50;52.20
60848;DHT22;46681;47.696;9.140;2023-04-25T02:35:28;12.50;52.30
60848;DHT22;46681;47.696;9.140;2023-04-25T02:37:54;12.40;52.30
60848;DHT22;46681;47.696;9.140;2023-04-25T02:40:26;12.40;52.40
60848;DHT22;46681;47.696;9.140;2023-04-25T02:42:55;12.40;52.20
60848;DHT22;46681;47.696;9.140;2023-04-25T02:45:21;12.30;52.50
60848;DHT22;46681;47.696;9.140;2023-04-25T02:47:47;12.30;52.60
60848;DHT22;46681;47.696;9.140;2023-04-25T02:50:21;12.30;52.40
60848;DHT22;46681;47.696;9.140;2023-04-25T02:52:50;12.20;52.60
60848;DHT22;46681;47.696;9.140;2023-04-25T02:55:18;12.20;52.60
60848;DHT22;46681;47.696;9.140;2023-04-25T02:57:45;12.20;52.70
60848;DHT22;46681;47.696;9.140;2023-04-25T03:00:11;12.20;52.70
60848;DHT22;46681;47.696;9.140;2023-04-25T03:02:39;12.10;52.60
60848;DHT22;46681;47.696;9.140;2023-04-25T03:05:07;12.10;52.70
60848;DHT22;46681;47.696;9.140;2023-04-25T03:07:33;12.10;52.80
60848;DHT22;46681;47.696;9.140;2023-04-25T03:10:01;12.00;52.80
60848;DHT22;46681;47.696;9.140;2023-04-25T03:12:29;12.00;52.80
60848;DHT22;46681;47.696;9.140;2023-04-25T03:14:58;12.00;52.80
60848;DHT22;46681;47.696;9.140;2023-04-25T03:17:26;11.90;52.90
60848;DHT22;46681;47.696;9.140;2023-04-25T03:19:51;11.90;52.90
60848;DHT22;46681;47.696;9.140;2023-04-25T03:22:23;11.90;52.90
60848;DHT22;46681;47.696;9.140;2023-04-25T03:24:49;11.90;52.80
60848;DHT22;46681;47.696;9.140;2023-04-25T03:27:17;11.80;52.90
60848;DHT22;46681;47.696;9.140;2023-04-25T03:29:42;11.80;53.00
60848;DHT22;46681;47.696;9.140;2023-04-25T03:32:08;11.80;52.90
60848;DHT22;46681;47.696;9.140;2023-04-25T03:34:36;11.80;53.00
60848;DHT22;46681;47.696;9.140;2023-04-25T03:37:02;11.70;53.00
60848;DHT22;46681;47.696;9.140;2023-04-25T03:39:31;11.70;53.00
60848;DHT22;46681;47.696;9.140;2023-04-25T03:41:57;11.70;53.50
60848;DHT22;46681;47.696;9.140;2023-04-25T03:44:25;11.70;53.00
60848;DHT22;46681;47.696;9.140;2023-04-25T03:46:56;11.70;53.10
60848;DHT22;46681;47.696;9.140;2023-04-25T03:49:34;11.60;53.20
60848;DHT22;46681;47.696;9.140;2023-04-25T03:51:59;11.60;53.10
60848;DHT22;46681;47.696;9.140;2023-04-25T03:54:33;11.60;53.10
60848;DHT22;46681;47.696;9.140;2023-04-25T03:56:58;11.60;53.30
60848;DHT22;46681;47.696;9.140;2023-04-25T03:59:39;11.50;53.20
60848;DHT22;46681;47.696;9.140;2023-04-25T04:04:55;11.50;53.20
60848;DHT22;46681;47.696;9.140;2023-04-25T04:07:24;11.50;53.20
60848;DHT22;46681;47.696;9.140;2023-04-25T04:09:53;11.40;53.30
60848;DHT22;46681;47.696;9.140;2023-04-25T04:12:18;11.40;53.30
60848;DHT22;46681;47.696;9.140;2023-04-25T04:14:46;11.40;53.30
60848;DHT22;46681;47.696;9.140;2023-04-25T04:17:13;11.30;53.20
60848;DHT22;46681;47.696;9.140;2023-04-25T04:19:42;11.30;53.20
60848;DHT22;46681;47.696;9.140;2023-04-25T04:22:10;11.30;53.30
60848;DHT22;46681;47.696;9.140;2023-04-25T04:24:38;11.30;53.30
60848;DHT22;46681;47.696;9.140;2023-04-25T04:27:09;11.20;53.40
60848;DHT22;46681;47.696;9.140;2023-04-25T04:29:35;11.20;53.30
60848;DHT22;46681;47.696;9.140;2023-04-25T04:32:08;11.20;53.40
60848;DHT22;46681;47.696;9.140;2023-04-25T04:35:01;11.30;53.80
60848;DHT22;46681;47.696;9.140;2023-04-25T04:37:31;11.20;53.60
60848;DHT22;46681;47.696;9.140;2023-04-25T04:40:33;11.20;53.60
60848;DHT22;46681;47.696;9.140;2023-04-25T04:43:13;11.30;53.60
60848;DHT22;46681;47.696;9.140;2023-04-25T04:45:38;11.20;53.60
60848;DHT22;46681;47.696;9.140;2023-04-25T04:48:23;11.20;53.60
60848;DHT22;46681;47.696;9.140;2023-04-25T04:51:00;11.20;53.50
60848;DHT22;46681;47.696;9.140;2023-04-25T04:53:53;11.20;53.50
60848;DHT22;46681;47.696;9.140;2023-04-25T04:59:40;11.20;53.50
60848;DHT22;46681;47.696;9.140;2023-04-25T05:05:25;11.30;53.50
60848;DHT22;46681;47.696;9.140;2023-04-25T05:08:02;11.30;53.50
60848;DHT22;46681;47.696;9.140;2023-04-25T05:10:36;11.30;53.50
60848;DHT22;46681;47.696;9.140;2023-04-25T05:16:10;11.30;54.30
60848;DHT22;46681;47.696;9.140;2023-04-25T05:18:41;11.30;54.10
60848;DHT22;46681;47.696;9.140;2023-04-25T05:21:52;11.30;54.00
60848;DHT22;46681;47.696;9.140;2023-04-25T05:24:55;11.40;55.30
60848;DHT22;46681;47.696;9.140;2023-04-25T05:27:22;11.50;55.00
60848;DHT22;46681;47.696;9.140;2023-04-25T05:30:14;11.50;54.70
60848;DHT22;46681;47.696;9.140;2023-04-25T05:33:00;11.50;54.50
60848;DHT22;46681;47.696;9.140;2023-04-25T05:35:39;11.60;58.00
60848;DHT22;46681;47.696;9.140;2023-04-25T05:38:32;11.70;57.40
60848;DHT22;46681;47.696;9.140;2023-04-25T05:41:13;11.60;56.40
60848;DHT22;46681;47.696;9.140;2023-04-25T05:43:57;11.60;56.20
60848;DHT22;46681;47.696;9.140;2023-04-25T05:46:26;11.60;55.90
60848;DHT22;46681;47.696;9.140;2023-04-25T05:49:04;11.60;55.70
60848;DHT22;46681;47.696;9.140;2023-04-25T05:51:40;11.60;55.50
60848;DHT22;46681;47.696;9.140;2023-04-25T05:57:04;11.70;55.50
60848;DHT22;46681;47.696;9.140;2023-04-25T05:59:45;11.70;55.40
60848;DHT22;46681;47.696;9.140;2023-04-25T06:08:40;11.70;55.30
60848;DHT22;46681;47.696;9.140;2023-04-25T06:11:24;11.80;55.40
60848;DHT22;46681;47.696;9.140;2023-04-25T06:13:58;11.80;55.70
60848;DHT22;46681;47.696;9.140;2023-04-25T06:16:54;11.80;55.20
60848;DHT22;46681;47.696;9.140;2023-04-25T06:19:41;11.90;55.20
60848;DHT22;46681;47.696;9.140;2023-04-25T06:25:40;11.90;55.10
60848;DHT22;46681;47.696;9.140;2023-04-25T06:28:08;12.00;55.10
60848;DHT22;46681;47.696;9.140;2023-04-25T06:30:39;12.00;55.00
60848;DHT22;46681;47.696;9.140;2023-04-25T06:36:32;12.10;54.90
60848;DHT22;46681;47.696;9.140;2023-04-25T06:42:23;12.30;54.70
60848;DHT22;46681;47.696;9.140;2023-04-25T06:45:14;12.40;54.60
60848;DHT22;46681;47.696;9.140;2023-04-25T06:47:45;12.40;54.50
60848;DHT22;46681;47.696;9.140;2023-04-25T06:50:29;12.40;54.40
60848;DHT22;46681;47.696;9.140;2023-04-25T06:53:08;12.50;54.30
60848;DHT22;46681;47.696;9.140;2023-04-25T06:55:39;12.50;54.30
60848;DHT22;46681;47.696;9.140;2023-04-25T06:58:47;12.60;54.20
60848;DHT22;46681;47.696;9.140;2023-04-25T07:04:16;12.60;54.10
60848;DHT22;46681;47.696;9.140;2023-04-25T07:07:01;12.70;54.20
60848;DHT22;46681;47.696;9.140;2023-04-25T07:09:54;12.70;54.10
60848;DHT22;46681;47.696;9.140;2023-04-25T07:12:26;12.70;54.10
60848;DHT22;46681;47.696;9.140;2023-04-25T07:30:14;12.70;54.40
60848;DHT22;46681;47.696;9.140;2023-04-25T07:33:25;12.70;54.50
60848;DHT22;46681;47.696;9.140;2023-04-25T07:39:33;12.70;54.70
60848;DHT22;46681;47.696;9.140;2023-04-25T07:45:39;12.60;54.80
60848;DHT22;46681;47.696;9.140;2023-04-25T07:57:51;12.50;55.20
60848;DHT22;46681;47.696;9.140;2023-04-25T08:00:44;12.50;55.20
60848;DHT22;46681;47.696;9.140;2023-04-25T08:03:29;12.50;55.10
60848;DHT22;46681;47.696;9.140;2023-04-25T08:06:12;12.50;55.10
60848;DHT22;46681;47.696;9.140;2023-04-25T08:09:07;12.50;55.20
60848;DHT22;46681;47.696;9.140;2023-04-25T08:11:42;12.50;55.30
60848;DHT22;46681;47.696;9.140;2023-04-25T08:14:24;12.40;55.30
60848;DHT22;46681;47.696;9.140;2023-04-25T08:29:44;12.40;55.50
60848;DHT22;46681;47.696;9.140;2023-04-25T08:32:20;12.40;55.60
60848;DHT22;46681;47.696;9.140;2023-04-25T08:38:16;12.40;55.70
60848;DHT22;46681;47.696;9.140;2023-04-25T08:41:15;12.40;55.70
60848;DHT22;46681;47.696;9.140;2023-04-25T08:46:52;12.40;55.70
60848;DHT22;46681;47.696;9.140;2023-04-25T08:49:58;12.40;55.80
60848;DHT22;46681;47.696;9.140;2023-04-25T08:55:56;12.40;55.80
60848;DHT22;46681;47.696;9.140;2023-04-25T08:58:39;12.40;55.90
60848;DHT22;46681;47.696;9.140;2023-04-25T09:04:32;12.30;55.80
60848;DHT22;46681;47.696;9.140;2023-04-25T09:07:23;12.30;56.00
60848;DHT22;46681;47.696;9.140;2023-04-25T09:09:53;12.30;56.10
60848;DHT22;46681;47.696;9.140;2023-04-25T09:12:48;12.40;56.00
60848;DHT22;46681;47.696;9.140;2023-04-25T09:15:26;12.40;56.10
60848;DHT22;46681;47.696;9.140;2023-04-25T09:18:28;12.40;56.10
60848;DHT22;46681;47.696;9.140;2023-04-25T09:21:14;12.40;56.20
60848;DHT22;46681;47.696;9.140;2023-04-25T09:24:11;12.50;56.10
60848;DHT22;46681;47.696;9.140;2023-04-25T09:27:01;12.50;56.00
60848;DHT22;46681;47.696;9.140;2023-04-25T09:29:56;12.60;56.00
60848;DHT22;46681;47.696;9.140;2023-04-25T09:32:42;12.70;56.20
60848;DHT22;46681;47.696;9.140;2023-04-25T09:35:30;12.70;56.40
60848;DHT22;46681;47.696;9.140;2023-04-25T09:38:40;12.80;56.30
60848;DHT22;46681;47.696;9.140;2023-04-25T09:41:13;12.80;56.50
60848;DHT22;46681;47.696;9.140;2023-04-25T09:43:49;12.90;56.40
60848;DHT22;46681;47.696;9.140;2023-04-25T09:49:53;12.90;56.40
60848;DHT22;46681;47.696;9.140;2023-04-25T09:55:16;13.10;56.60
60848;DHT22;46681;47.696;9.140;2023-04-25T09:58:12;13.10;56.70
60848;DHT22;46681;47.696;9.140;2023-04-25T10:00:42;13.10;56.70
60848;DHT22;46681;47.696;9.140;2023-04-25T10:03:15;13.20;56.60
60848;DHT22;46681;47.696;9.140;2023-04-25T10:05:59;13.20;56.70
60848;DHT22;46681;47.696;9.140;2023-04-25T10:08:38;13.30;56.70
60848;DHT22;46681;47.696;9.140;2023-04-25T10:11:15;13.30;56.60
60848;DHT22;46681;47.696;9.140;2023-04-25T10:13:51;13.40;56.50
60848;DHT22;46681;47.696;9.140;2023-04-25T10:19:16;13.50;57.00
60848;DHT22;46681;47.696;9.140;2023-04-25T10:24:44;13.70;56.60
60848;DHT22;46681;47.696;9.140;2023-04-25T10:27:30;13.80;57.00
60848;DHT22;46681;47.696;9.140;2023-04-25T10:30:18;13.90;56.40
60848;DHT22;46681;47.696;9.140;2023-04-25T10:32:58;13.90;56.60
60848;DHT22;46681;47.696;9.140;2023-04-25T10:35:32;14.00;56.10
60848;DHT22;46681;47.696;9.140;2023-04-25T10:38:15;14.00;56.50
60848;DHT22;46681;47.696;9.140;2023-04-25T10:41:04;14.00;55.90
60848;DHT22;46681;47.696;9.140;2023-04-25T10:43:36;14.10;55.80
60848;DHT22;46681;47.696;9.140;2023-04-25T10:56:00;14.20;55.40
60848;DHT22;46681;47.696;9.140;2023-04-25T10:59:22;14.20;56.30
60848;DHT22;46681;47.696;9.140;2023-04-25T11:02:11;14.20;55.70
60848;DHT22;46681;47.696;9.140;2023-04-25T11:04:42;14.20;55.70
60848;DHT22;46681;47.696;9.140;2023-04-25T11:10:28;14.10;55.70
60848;DHT22;46681;47.696;9.140;2023-04-25T11:13:04;14.20;55.70
60848;DHT22;46681;47.696;9.140;2023-04-25T11:15:37;14.30;55.50
60848;DHT22;46681;47.696;9.140;2023-04-25T11:18:20;14.40;55.40
60848;DHT22;46681;47.696;9.140;2023-04-25T11:21:05;14.60;55.40
60848;DHT22;46681;47.696;9.140;2023-04-25T11:23:35;15.00;55.20
60848;DHT22;46681;47.696;9.140;2023-04-25T11:26:19;15.20;53.90
60848;DHT22;46681;47.696;9.140;2023-04-25T11:28:58;15.30;53.70
60848;DHT22;46681;47.696;9.140;2023-04-25T11:34:20;15.80;53.60
60848;DHT22;46681;47.696;9.140;2023-04-25T11:37:02;16.20;52.90
60848;DHT22;46681;47.696;9.140;2023-04-25T11:39:51;16.60;52.20
60848;DHT22;46681;47.696;9.140;2023-04-25T11:42:25;16.90;51.70
60848;DHT22;46681;47.696;9.140;2023-04-25T11:45:10;17.30;51.00
60848;DHT22;46681;47.696;9.140;2023-04-25T11:47:38;17.40;50.50
60848;DHT22;46681;47.696;9.140;2023-04-25T11:50:47;17.50;50.20
60848;DHT22;46681;47.696;9.140;2023-04-25T11:53:26;17.50;49.80
60848;DHT22;46681;47.696;9.140;2023-04-25T11:56:00;17.40;50.00
60848;DHT22;46681;47.696;9.140;2023-04-25T11:59:00;17.30;50.30
60848;DHT22;46681;47.696;9.140;2023-04-25T12:04:31;17.20;50.80
60848;DHT22;46681;47.696;9.140;2023-04-25T12:16:39;16.80;51.50
60848;DHT22;46681;47.696;9.140;2023-04-25T12:19:09;16.70;51.60
60848;DHT22;46681;47.696;9.140;2023-04-25T12:22:00;16.60;51.70
60848;DHT22;46681;47.696;9.140;2023-04-25T12:24:44;16.50;52.10
60848;DHT22;46681;47.696;9.140;2023-04-25T12:27:28;16.50;52.90
60848;DHT22;46681;47.696;9.140;2023-04-25T12:30:18;16.40;52.90
60848;DHT22;46681;47.696;9.140;2023-04-25T12:36:04;16.40;53.00
60848;DHT22;46681;47.696;9.140;2023-04-25T12:39:10;16.40;52.90
60848;DHT22;46681;47.696;9.140;2023-04-25T12:41:47;16.60;53.80
60848;DHT22;46681;47.696;9.140;2023-04-25T12:44:31;16.90;53.50
60848;DHT22;46681;47.696;9.140;2023-04-25T12:50:06;17.10;52.40
60848;DHT22;46681;47.696;9.140;2023-04-25T12:53:03;17.40;52.50
60848;DHT22;46681;47.696;9.140;2023-04-25T12:55:46;17.70;52.10
60848;DHT22;46681;47.696;9.140;2023-04-25T12:58:27;18.10;51.50
60848;DHT22;46681;47.696;9.140;2023-04-25T13:00:58;18.30;50.90
60848;DHT22;46681;47.696;9.140;2023-04-25T13:03:29;18.50;50.60
60848;DHT22;46681;47.696;9.140;2023-04-25T13:06:11;18.70;50.20
60848;DHT22;46681;47.696;9.140;2023-04-25T13:08:50;18.80;49.70
60848;DHT22;46681;47.696;9.140;2023-04-25T13:11:23;18.60;49.30
60848;DHT22;46681;47.696;9.140;2023-04-25T13:14:01;18.60;49.70
60848;DHT22;46681;47.696;9.140;2023-04-25T13:17:17;18.50;49.60
60848;DHT22;46681;47.696;9.140;2023-04-25T13:19:45;18.80;50.10
60848;DHT22;46681;47.696;9.140;2023-04-25T13:22:25;18.90;49.60
60848;DHT22;46681;47.696;9.140;2023-04-25T13:25:09;19.00;49.30
60848;DHT22;46681;47.696;9.140;2023-04-25T13:27:47;19.10;49.30
60848;DHT22;46681;47.696;9.140;2023-04-25T13:33:48;18.90;47.90
60848;DHT22;46681;47.696;9.140;2023-04-25T13:36:21;18.60;46.40
60848;DHT22;46681;47.696;9.140;2023-04-25T13:39:20;18.30;45.60
60848;DHT22;46681;47.696;9.140;2023-04-25T13:49:06;19.00;47.50
60848;DHT22;46681;47.696;9.140;2023-04-25T13:52:16;19.40;47.20
60848;DHT22;46681;47.696;9.140;2023-04-25T14:04:07;20.00;46.20
60848;DHT22;46681;47.696;9.140;2023-04-25T14:06:36;20.20;46.20
60848;DHT22;46681;47.696;9.140;2023-04-25T14:09:45;20.30;46.00
60848;DHT22;46681;47.696;9.140;2023-04-25T14:15:08;19.90;45.60
60848;DHT22;46681;47.696;9.140;2023-04-25T14:23:55;19.20;45.80
60848;DHT22;46681;47.696;9.140;2023-04-25T14:26:42;19.00;46.30
60848;DHT22;46681;47.696;9.140;2023-04-25T14:29:28;18.80;46.50
60848;DHT22;46681;47.696;9.140;2023-04-25T14:32:00;18.60;46.90
60848;DHT22;46681;47.696;9.140;2023-04-25T14:34:33;18.50;47.20
60848;DHT22;46681;47.696;9.140;2023-04-25T14:53:18;17.70;49.30
60848;DHT22;46681;47.696;9.140;2023-04-25T14:55:49;17.70;49.40
60848;DHT22;46681;47.696;9.140;2023-04-25T14:58:16;17.70;49.60
60848;DHT22;46681;47.696;9.140;2023-04-25T15:04:08;17.60;50.00
60848;DHT22;46681;47.696;9.140;2023-04-25T15:06:56;17.50;50.20
60848;DHT22;46681;47.696;9.140;2023-04-25T15:09:59;17.40;50.10
60848;DHT22;46681;47.696;9.140;2023-04-25T15:12:40;17.40;50.10
60848;DHT22;46681;47.696;9.140;2023-04-25T15:18:30;17.40;50.10
60848;DHT22;46681;47.696;9.140;2023-04-25T15:24:47;17.40;50.30
60848;DHT22;46681;47.696;9.140;2023-04-25T15:27:50;17.40;50.30
60848;DHT22;46681;47.696;9.140;2023-04-25T15:30:51;17.30;50.00
60848;DHT22;46681;47.696;9.140;2023-04-25T15:33:19;17.20;49.70
60848;DHT22;46681;47.696;9.140;2023-04-25T15:36:14;17.20;49.80
60848;DHT22;46681;47.696;9.140;2023-04-25T15:39:00;17.10;49.70
60848;DHT22;46681;47.696;9.140;2023-04-25T15:41:35;17.10;49.80
60848;DHT22;46681;47.696;9.140;2023-04-25T15:44:11;17.10;49.80
60848;DHT22;46681;47.696;9.140;2023-04-25T15:49:46;17.10;50.10
60848;DHT22;46681;47.696;9.140;2023-04-25T15:52:40;17.00;50.10
60848;DHT22;46681;47.696;9.140;2023-04-25T15:58:47;16.90;51.20
60848;DHT22;46681;47.696;9.140;2023-04-25T16:01:29;16.80;50.40
60848;DHT22;46681;47.696;9.140;2023-04-25T16:08:20;16.70;51.40
60848;DHT22;46681;47.696;9.140;2023-04-25T16:10:39;16.60;51.30
60848;DHT22;46681;47.696;9.140;2023-04-25T16:13:18;16.60;51.40
60848;DHT22;46681;47.696;9.140;2023-04-25T16:16:04;16.50;51.00
60848;DHT22;46681;47.696;9.140;2023-04-25T16:22:12;16.40;50.70
60848;DHT22;46681;47.696;9.140;2023-04-25T16:25:08;16.30;50.90
60848;DHT22;46681;47.696;9.140;2023-04-25T16:28:34;16.20;50.90
60848;DHT22;46681;47.696;9.140;2023-04-25T16:34:39;15.90;51.60
60848;DHT22;46681;47.696;9.140;2023-04-25T16:37:45;15.80;51.90
60848;DHT22;46681;47.696;9.140;2023-04-25T16:40:18;15.80;51.90
60848;DHT22;46681;47.696;9.140;2023-04-25T16:42:48;15.70;52.10
60848;DHT22;46681;47.696;9.140;2023-04-25T16:45:14;15.70;52.40
60848;DHT22;46681;47.696;9.140;2023-04-25T16:47:45;15.60;52.30
60848;DHT22;46681;47.696;9.140;2023-04-25T16:50:18;15.60;52.40
60848;DHT22;46681;47.696;9.140;2023-04-25T16:53:17;15.50;52.70
60848;DHT22;46681;47.696;9.140;2023-04-25T16:55:52;15.50;52.80
60848;DHT22;46681;47.696;9.140;2023-04-25T16:58:27;15.40;52.80
60848;DHT22;46681;47.696;9.140;2023-04-25T17:04:23;15.30;52.90
60848;DHT22;46681;47.696;9.140;2023-04-25T17:10:20;15.20;53.40
60848;DHT22;46681;47.696;9.140;2023-04-25T17:13:19;15.10;53.50
60848;DHT22;46681;47.696;9.140;2023-04-25T17:16:06;15.10;53.90
60848;DHT22;46681;47.696;9.140;2023-04-25T17:18:37;15.00;53.90
60848;DHT22;46681;47.696;9.140;2023-04-25T17:21:36;15.00;54.10
60848;DHT22;46681;47.696;9.140;2023-04-25T17:24:25;14.90;54.10
60848;DHT22;46681;47.696;9.140;2023-04-25T17:27:03;14.90;54.30
60848;DHT22;46681;47.696;9.140;2023-04-25T17:29:59;14.80;54.40
60848;DHT22;46681;47.696;9.140;2023-04-25T17:36:26;14.80;54.60
60848;DHT22;46681;47.696;9.140;2023-04-25T17:39:07;14.70;54.80
60848;DHT22;46681;47.696;9.140;2023-04-25T17:42:00;14.70;54.90
60848;DHT22;46681;47.696;9.140;2023-04-25T17:47:40;14.60;55.00
60848;DHT22;46681;47.696;9.140;2023-04-25T17:50:22;14.50;55.20
60848;DHT22;46681;47.696;9.140;2023-04-25T17:52:53;14.50;55.20
60848;DHT22;46681;47.696;9.140;2023-04-25T17:55:38;14.50;56.20
60848;DHT22;46681;47.696;9.140;2023-04-25T17:58:20;14.50;55.90
60848;DHT22;46681;47.696;9.140;2023-04-25T18:03:46;14.40;55.90
60848;DHT22;46681;47.696;9.140;2023-04-25T18:06:27;14.40;56.00
60848;DHT22;46681;47.696;9.140;2023-04-25T18:11:52;14.30;55.80
60848;DHT22;46681;47.696;9.140;2023-04-25T18:14:27;14.30;56.00
60848;DHT22;46681;47.696;9.140;2023-04-25T18:16:59;14.20;55.90
60848;DHT22;46681;47.696;9.140;2023-04-25T18:19:44;14.20;56.10
60848;DHT22;46681;47.696;9.140;2023-04-25T18:22:14;14.20;56.10
60848;DHT22;46681;47.696;9.140;2023-04-25T18:24:51;14.10;56.10
60848;DHT22;46681;47.696;9.140;2023-04-25T18:27:28;14.10;56.10
60848;DHT22;46681;47.696;9.140;2023-04-25T18:32:55;14.10;56.30
60848;DHT22;46681;47.696;9.140;2023-04-25T18:35:31;14.00;56.20
60848;DHT22;46681;47.696;9.140;2023-04-25T18:38:13;13.90;56.10
60848;DHT22;46681;47.696;9.140;2023-04-25T18:40:58;13.90;56.00
60848;DHT22;46681;47.696;9.140;2023-04-25T18:43:30;13.90;56.10
60848;DHT22;46681;47.696;9.140;2023-04-25T18:45:58;13.80;55.90
60848;DHT22;46681;47.696;9.140;2023-04-25T18:48:38;13.80;55.70
60848;DHT22;46681;47.696;9.140;2023-04-25T18:51:12;13.70;56.00
60848;DHT22;46681;47.696;9.140;2023-04-25T18:53:43;13.70;56.00
60848;DHT22;46681;47.696;9.140;2023-04-25T18:59:31;13.70;56.10
60848;DHT22;46681;47.696;9.140;2023-04-25T19:02:24;13.60;56.20
60848;DHT22;46681;47.696;9.140;2023-04-25T19:05:14;13.60;56.10
60848;DHT22;46681;47.696;9.140;2023-04-25T19:07:53;13.60;56.10
60848;DHT22;46681;47.696;9.140;2023-04-25T19:10:22;13.60;56.50
60848;DHT22;46681;47.696;9.140;2023-04-25T19:12:53;13.50;56.30
60848;DHT22;46681;47.696;9.140;2023-04-25T19:15:27;13.50;56.50
60848;DHT22;46681;47.696;9.140;2023-04-25T19:17:59;13.40;56.20
60848;DHT22;46681;47.696;9.140;2023-04-25T19:20:53;13.40;56.60
60848;DHT22;46681;47.696;9.140;2023-04-25T19:23:33;13.40;56.70
60848;DHT22;46681;47.696;9.140;2023-04-25T19:26:13;13.40;56.60
60848;DHT22;46681;47.696;9.140;2023-04-25T19:28:46;13.40;56.70
60848;DHT22;46681;47.696;9.140;2023-04-25T19:31:24;13.30;56.80
60848;DHT22;46681;47.696;9.140;2023-04-25T19:33:53;13.30;56.80
60848;DHT22;46681;47.696;9.140;2023-04-25T19:36:29;13.30;56.80
60848;DHT22;46681;47.696;9.140;2023-04-25T19:39:03;13.30;57.00
60848;DHT22;46681;47.696;9.140;2023-04-25T19:41:54;13.20;57.00
60848;DHT22;46681;47.696;9.140;2023-04-25T19:44:25;13.20;57.50
60848;DHT22;46681;47.696;9.140;2023-04-25T19:47:04;13.20;57.10
60848;DHT22;46681;47.696;9.140;2023-04-25T19:49:42;13.20;57.10
60848;DHT22;46681;47.696;9.140;2023-04-25T19:52:19;13.20;57.10
60848;DHT22;46681;47.696;9.140;2023-04-25T19:54:52;13.20;57.20
60848;DHT22;46681;47.696;9.140;2023-04-25T19:57:27;13.10;57.20
60848;DHT22;46681;47.696;9.140;2023-04-25T19:59:56;13.20;57.30
60848;DHT22;46681;47.696;9.140;2023-04-25T20:02:44;13.10;57.30
60848;DHT22;46681;47.696;9.140;2023-04-25T20:05:26;13.10;57.30
60848;DHT22;46681;47.696;9.140;2023-04-25T20:08:10;13.10;57.30
60848;DHT22;46681;47.696;9.140;2023-04-25T20:10:51;13.10;57.20
60848;DHT22;46681;47.696;9.140;2023-04-25T20:13:29;13.10;57.30
60848;DHT22;46681;47.696;9.140;2023-04-25T20:16:14;13.00;57.30
60848;DHT22;46681;47.696;9.140;2023-04-25T20:18:47;13.00;57.40
60848;DHT22;46681;47.696;9.140;2023-04-25T20:21:37;13.00;57.50
60848;DHT22;46681;47.696;9.140;2023-04-25T20:24:23;13.00;57.50
60848;DHT22;46681;47.696;9.140;2023-04-25T20:26:53;13.00;57.60
60848;DHT22;46681;47.696;9.140;2023-04-25T20:29:22;12.90;57.40
60848;DHT22;46681;47.696;9.140;2023-04-25T20:31:58;12.90;57.50